createdAt,value
2022-08-05T00:00:51.557Z,100434.63
2022-08-05T00:03:53.519Z,100437.41
2022-08-05T00:06:59.202Z,100431.72
2022-08-05T00:10:01.116Z,100431.13
2022-08-05T00:13:02.878Z,100430.16
2022-08-05T00:16:06.119Z,100427.63
2022-08-05T00:19:10.393Z,100422.09
2022-08-05T00:22:12.475Z,100420.41
2022-08-05T00:25:14.162Z,100424.13
2022-08-05T00:28:29.458Z,100421.47
2022-08-05T00:31:53.458Z,100424.13
2022-08-05T00:35:06.591Z,100419.72
2022-08-05T00:38:09.555Z,100419.72
2022-08-05T00:41:11.660Z,100425.25
2022-08-05T00:44:13.736Z,100421.75
2022-08-05T00:47:16.450Z,100414.75
2022-08-05T00:50:18.860Z,100415.63
2022-08-05T00:54:00.738Z,100417.41
2022-08-05T00:56:51.334Z,100418.91
2022-08-05T00:59:53.327Z,100422.66
2022-08-05T01:02:56.775Z,100425.41
2022-08-05T01:05:58.929Z,100422.66
2022-08-05T01:09:00.670Z,100423.44
2022-08-05T01:12:18.114Z,100417.22
2022-08-05T01:15:36.396Z,100421.59
2022-08-05T01:18:48.117Z,100418.12
2022-08-05T01:22:23.835Z,100420.00
2022-08-05T01:26:01.800Z,100421.75
2022-08-05T01:29:09.705Z,100416.37
2022-08-05T01:32:18.368Z,100419.59
2022-08-05T01:35:50.607Z,100415.12
2022-08-05T01:38:49.891Z,100420.25
2022-08-05T01:41:54.692Z,100416.53
2022-08-05T01:44:59.243Z,100406.97
2022-08-05T01:48:03.573Z,100418.53
2022-08-05T01:51:14.844Z,100419.91
2022-08-05T01:54:19.970Z,100420.09
2022-08-05T01:58:10.037Z,100416.53
2022-08-05T02:00:54.003Z,100424.63
2022-08-05T02:03:56.966Z,100427.19
2022-08-05T02:06:59.738Z,100422.94
2022-08-05T02:10:07.961Z,100416.84
2022-08-05T02:13:18.940Z,100422.91
2022-08-05T02:16:42.246Z,100424.69
2022-08-05T02:19:53.318Z,100429.03
2022-08-05T02:23:05.671Z,100426.53
2022-08-05T02:26:13.297Z,100426.66
2022-08-05T02:29:21.540Z,100431.94
2022-08-05T02:32:32.160Z,100424.94
2022-08-05T02:35:38.505Z,100425.84
2022-08-05T02:38:55.108Z,100423.09
2022-08-05T02:42:01.221Z,100417.03
2022-08-05T02:45:07.427Z,100421.44
2022-08-05T02:48:12.574Z,100424.06
2022-08-05T02:51:15.732Z,100419.69
2022-08-05T02:54:36.073Z,100422.31
2022-08-05T02:58:09.833Z,100424.94
2022-08-05T03:01:03.287Z,100424.09
2022-08-05T03:04:14.374Z,100424.06
2022-08-05T03:07:59.373Z,100419.69
2022-08-05T03:11:53.215Z,100419.69
2022-08-05T03:14:08.029Z,100418.78
2022-08-05T03:17:10.131Z,100413.53
2022-08-05T03:20:13.640Z,100418.81
2022-08-05T03:23:16.043Z,100424.00
2022-08-05T03:26:31.378Z,100424.03
2022-08-05T03:29:45.880Z,100421.41
2022-08-05T03:32:57.300Z,100413.50
2022-08-05T03:36:00.243Z,100412.66
2022-08-05T03:39:08.049Z,100405.63
2022-08-05T03:42:14.515Z,100408.25
2022-08-05T03:45:21.585Z,100406.44
2022-08-05T03:48:24.980Z,100412.59
2022-08-05T03:52:37.397Z,100413.50
2022-08-05T03:56:01.855Z,100408.28
2022-08-05T03:58:29.238Z,100406.50
2022-08-05T04:01:32.941Z,100412.66
2022-08-05T04:04:35.993Z,100405.59
2022-08-05T04:07:58.062Z,100402.09
2022-08-05T04:11:02.743Z,100408.28
2022-08-05T04:14:05.063Z,100410.91
2022-08-05T04:17:09.259Z,100408.22
2022-08-05T04:20:21.233Z,100404.72
2022-08-05T04:24:05.368Z,100413.50
2022-08-05T04:26:50.028Z,100411.72
2022-08-05T04:29:51.684Z,100417.06
2022-08-05T04:32:53.501Z,100421.44
2022-08-05T04:36:10.879Z,100410.81
2022-08-05T04:39:19.064Z,100420.50
2022-08-05T04:42:20.692Z,100422.19
2022-08-05T04:45:47.693Z,100423.03
2022-08-05T04:48:49.141Z,100421.16
2022-08-05T04:52:00.387Z,100421.13
2022-08-05T04:55:13.875Z,100413.13
2022-08-05T04:58:17.847Z,100409.47
2022-08-05T05:02:05.445Z,100417.31
2022-08-05T05:04:49.780Z,100403.31
2022-08-05T05:07:56.128Z,100405.00
2022-08-05T05:11:02.665Z,100410.28
2022-08-05T05:14:04.451Z,100414.59
2022-08-05T05:17:10.559Z,100413.56
2022-08-05T05:20:13.841Z,100411.75
2022-08-05T05:23:19.924Z,100410.72
2022-08-05T05:26:28.287Z,100412.12
2022-08-05T05:29:40.827Z,100413.66
2022-08-05T05:32:56.394Z,100418.62
2022-08-05T05:35:58.174Z,100417.63
2022-08-05T05:39:03.859Z,100418.19
2022-08-05T05:42:06.185Z,100414.13
2022-08-05T05:45:09.221Z,100405.25
2022-08-05T05:48:10.854Z,100407.28
2022-08-05T05:51:19.762Z,100412.00
2022-08-05T05:54:22.037Z,100413.53
2022-08-05T05:57:52.141Z,100409.69
2022-08-05T06:00:54.886Z,100404.41
2022-08-05T06:04:02.140Z,100411.62
2022-08-05T06:07:05.527Z,100406.22
2022-08-05T06:10:10.465Z,100394.59
2022-08-05T06:13:12.612Z,100397.63
2022-08-05T06:16:28.883Z,100403.84
2022-08-05T06:19:34.738Z,100401.19
2022-08-05T06:22:37.451Z,100404.53
2022-08-05T06:26:12.181Z,100402.47
2022-08-05T06:29:06.934Z,100403.03
2022-08-05T06:32:28.868Z,100403.81
2022-08-05T06:36:05.782Z,100400.63
2022-08-05T06:38:54.806Z,100408.09
2022-08-05T06:42:04.192Z,100407.31
2022-08-05T06:45:08.525Z,100400.41
2022-08-05T06:48:36.627Z,100405.91
2022-08-05T06:51:32.737Z,100405.19
2022-08-05T06:54:34.787Z,100402.47
2022-08-05T06:58:02.558Z,100408.12
2022-08-05T07:01:01.288Z,100402.53
2022-08-05T07:04:03.486Z,100402.75
2022-08-05T07:07:06.265Z,100402.13
2022-08-05T07:10:10.507Z,100399.37
2022-08-05T07:13:57.053Z,100400.38
2022-08-05T07:18:00.459Z,100401.00
2022-08-05T07:20:33.442Z,100394.56
2022-08-05T07:23:37.497Z,100400.66
2022-08-05T07:26:51.201Z,100384.94
2022-08-05T07:30:28.228Z,100388.03
2022-08-05T07:33:16.467Z,100391.31
2022-08-05T07:36:21.270Z,100387.81
2022-08-05T07:39:50.342Z,100384.41
2022-08-05T07:42:45.069Z,100382.91
2022-08-05T07:45:56.693Z,100391.06
2022-08-05T07:49:05.871Z,100392.00
2022-08-05T07:52:08.332Z,100381.56
2022-08-05T07:55:44.024Z,100383.56
2022-08-05T07:58:54.712Z,100389.47
2022-08-05T08:01:57.584Z,100389.53
2022-08-05T08:05:00.823Z,100385.16
2022-08-05T08:08:03.100Z,100394.78
2022-08-05T08:11:05.177Z,100383.50
2022-08-05T08:14:10.832Z,100382.44
2022-08-05T08:17:21.429Z,100386.28
2022-08-05T08:20:45.008Z,100386.84
2022-08-05T08:24:03.357Z,100380.03
2022-08-05T08:27:07.426Z,100383.00
2022-08-05T08:30:30.212Z,100391.78
2022-08-05T08:33:37.624Z,100395.00
2022-08-05T08:36:47.594Z,100382.50
2022-08-05T08:39:52.267Z,100384.56
2022-08-05T08:42:54.751Z,100378.41
2022-08-05T08:46:01.621Z,100383.53
2022-08-05T08:50:04.092Z,100380.41
2022-08-05T08:52:31.273Z,100376.97
2022-08-05T08:56:03.141Z,100377.25
2022-08-05T08:58:59.379Z,100374.12
2022-08-05T09:02:08.725Z,100370.50
2022-08-05T09:05:17.747Z,100363.97
2022-08-05T09:08:20.361Z,100369.19
2022-08-05T09:11:51.301Z,100364.22
2022-08-05T09:14:58.065Z,100356.06
2022-08-05T09:18:09.091Z,100363.38
2022-08-05T09:21:11.711Z,100356.31
2022-08-05T09:24:23.072Z,100357.62
2022-08-05T09:28:04.307Z,100354.59
2022-08-05T09:31:01.080Z,100354.56
2022-08-05T09:34:22.765Z,100349.97
2022-08-05T09:38:16.907Z,100348.28
2022-08-05T09:40:52.240Z,100353.06
2022-08-05T09:43:55.336Z,100354.12
2022-08-05T09:47:10.498Z,100341.19
2022-08-05T09:50:18.103Z,100338.22
2022-08-05T09:53:53.964Z,100346.22
2022-08-05T09:57:01.108Z,100341.44
2022-08-05T10:00:15.673Z,100340.66
2022-08-05T10:03:17.542Z,100336.22
2022-08-05T10:06:22.073Z,100331.84
2022-08-05T10:09:28.414Z,100333.28
2022-08-05T10:12:59.995Z,100323.81
2022-08-05T10:16:03.140Z,100317.50
2022-08-05T10:19:09.377Z,100322.50
2022-08-05T10:22:15.821Z,100309.41
2022-08-05T10:25:32.420Z,100302.91
2022-08-05T10:28:36.639Z,100306.91
2022-08-05T10:32:52.207Z,100297.41
2022-08-05T10:35:03.957Z,100299.00
2022-08-05T10:38:08.377Z,100301.22
2022-08-05T10:41:44.874Z,100302.78
2022-08-05T10:44:49.377Z,100290.63
2022-08-05T10:48:30.076Z,100290.59
2022-08-05T10:51:21.900Z,100290.06
2022-08-05T10:54:47.089Z,100276.59
2022-08-05T10:58:11.910Z,100281.66
2022-08-05T11:01:28.065Z,100273.25
2022-08-05T11:04:48.049Z,100272.38
2022-08-05T11:08:02.951Z,100268.50
2022-08-05T11:11:53.279Z,100269.84
2022-08-05T11:15:20.360Z,100273.00
2022-08-05T11:18:27.574Z,100259.41
2022-08-05T11:21:48.921Z,100262.59
2022-08-05T11:26:05.098Z,100245.84
2022-08-05T11:28:53.568Z,100254.81
2022-08-05T11:32:26.474Z,100253.22
2022-08-05T11:36:08.133Z,100250.75
2022-08-05T11:39:12.248Z,100251.25
2022-08-05T11:42:18.493Z,100248.44
2022-08-05T11:46:15.411Z,100245.22
2022-08-05T11:48:42.400Z,100236.81
2022-08-05T11:51:49.514Z,100242.75
2022-08-05T11:54:54.990Z,100236.44
2022-08-05T11:58:10.028Z,100248.47
2022-08-05T12:01:19.003Z,100238.06
2022-08-05T12:08:08.963Z,100230.19
2022-08-05T12:11:06.170Z,100230.06
2022-08-05T12:14:10.104Z,100221.44
2022-08-05T12:18:00.842Z,100226.47
2022-08-05T12:20:38.733Z,100226.84
2022-08-05T12:23:51.310Z,100229.53
2022-08-05T12:26:54.876Z,100225.38
2022-08-05T12:30:08.912Z,100226.56
2022-08-05T12:33:27.080Z,100220.47
2022-08-05T12:36:31.193Z,100214.66
2022-08-05T12:39:34.615Z,100220.50
2022-08-05T12:42:40.838Z,100213.72
2022-08-05T12:45:56.545Z,100214.59
2022-08-05T12:49:13.402Z,100212.34
2022-08-05T12:52:25.257Z,100212.06
2022-08-05T12:55:33.054Z,100199.72
2022-08-05T12:58:52.743Z,100201.81
2022-08-05T13:02:07.562Z,100194.22
2022-08-05T13:05:12.745Z,100195.63
2022-08-05T13:08:18.673Z,100195.09
2022-08-05T13:12:02.655Z,100186.59
2022-08-05T13:15:05.518Z,100191.62
2022-08-05T13:18:09.554Z,100188.66
2022-08-05T13:21:11.820Z,100191.09
2022-08-05T13:24:14.602Z,100179.56
2022-08-05T13:27:41.049Z,100177.47
2022-08-05T13:30:43.064Z,100171.41
2022-08-05T13:34:22.158Z,100171.97
2022-08-05T13:37:07.123Z,100168.94
2022-08-05T13:40:15.991Z,100172.91
2022-08-05T13:43:22.368Z,100171.91
2022-08-05T13:49:47.477Z,100163.47
2022-08-05T13:52:50.731Z,100168.50
2022-08-05T13:56:00.177Z,100166.19
2022-08-05T13:59:06.266Z,100158.69
2022-08-05T14:02:26.615Z,100153.69
2022-08-05T14:06:24.522Z,100150.69
2022-08-05T14:08:53.208Z,100143.44
2022-08-05T14:12:00.661Z,100145.91
2022-08-05T14:16:06.076Z,100147.22
2022-08-05T14:18:39.029Z,100141.31
2022-08-05T14:22:09.801Z,100137.09
2022-08-05T14:25:06.426Z,100134.91
2022-08-05T14:28:27.053Z,100134.63
2022-08-05T14:32:03.520Z,100134.41
2022-08-05T14:34:51.395Z,100123.41
2022-08-05T14:37:55.381Z,100115.53
2022-08-05T14:40:57.776Z,100117.19
2022-08-05T14:44:09.743Z,100129.66
2022-08-05T14:47:58.364Z,100102.25
2022-08-05T14:50:43.946Z,100113.62
2022-08-05T14:54:06.598Z,100110.31
2022-08-05T14:57:09.788Z,100109.62
2022-08-05T15:00:15.814Z,100102.53
2022-08-05T15:03:22.972Z,100108.19
2022-08-05T15:06:27.934Z,100094.66
2022-08-05T15:09:51.743Z,100100.19
2022-08-05T15:13:01.168Z,100097.31
2022-08-05T15:16:06.387Z,100090.22
2022-08-05T15:19:08.515Z,100081.34
2022-08-05T15:22:27.062Z,100086.19
2022-08-05T15:25:41.062Z,100084.50
2022-08-05T15:28:52.055Z,100085.06
2022-08-05T15:31:54.154Z,100068.41
2022-08-05T15:34:57.287Z,100072.16
2022-08-05T15:38:32.448Z,100068.16
2022-08-05T15:41:24.651Z,100065.31
2022-08-05T15:44:45.737Z,100070.72
2022-08-05T15:47:47.693Z,100066.19
2022-08-05T15:50:49.541Z,100064.31
2022-08-05T15:53:53.447Z,100061.78
2022-08-05T15:56:55.117Z,100055.91
2022-08-05T15:59:57.657Z,100056.91
2022-08-05T16:03:00.146Z,100058.09
2022-08-05T16:06:02.436Z,100054.66
2022-08-05T16:09:04.352Z,100051.84
2022-08-05T16:12:06.571Z,100049.12
2022-08-05T16:15:09.618Z,100037.91
2022-08-05T16:18:12.384Z,100047.03
2022-08-05T16:21:16.361Z,100042.59
2022-08-05T16:24:41.265Z,100044.31
2022-08-05T16:28:00.179Z,100046.53
2022-08-05T16:31:03.833Z,100040.00
2022-08-05T16:34:05.925Z,100047.22
2022-08-05T16:38:01.755Z,100038.94
2022-08-05T16:40:33.073Z,100036.75
2022-08-05T16:43:35.324Z,100038.97
2022-08-05T16:46:41.133Z,100030.56
2022-08-05T16:49:43.153Z,100035.62
2022-08-05T16:52:46.093Z,100026.00
2022-08-05T16:55:48.047Z,100033.16
2022-08-05T16:58:50.021Z,100038.38
2022-08-05T17:01:54.898Z,100040.37
2022-08-05T17:04:57.742Z,100037.22
2022-08-05T17:07:59.579Z,100041.84
2022-08-05T17:11:02.811Z,100043.22
2022-08-05T17:14:06.270Z,100039.31
2022-08-05T17:17:14.850Z,100037.84
2022-08-05T17:20:17.003Z,100044.06
2022-08-05T17:24:04.347Z,100046.63
2022-08-05T17:26:41.009Z,100047.47
2022-08-05T17:29:43.094Z,100049.97
2022-08-05T17:32:45.005Z,100045.13
2022-08-05T17:36:07.632Z,100061.53
2022-08-05T17:39:23.759Z,100066.16
2022-08-05T17:42:32.300Z,100066.03
2022-08-05T17:45:38.626Z,100064.91
2022-08-05T17:48:40.603Z,100059.31
2022-08-05T17:51:46.711Z,100069.28
2022-08-05T17:54:52.771Z,100074.28
2022-08-05T17:57:56.091Z,100065.00
2022-08-05T18:00:58.155Z,100064.22
2022-08-05T18:04:04.518Z,100067.53
2022-08-05T18:07:07.643Z,100069.44
2022-08-05T18:10:21.044Z,100065.84
2022-08-05T18:13:23.232Z,100065.13
2022-08-05T18:16:27.536Z,100059.62
2022-08-05T18:19:30.038Z,100071.78
2022-08-05T18:22:36.284Z,100067.25
2022-08-05T18:25:48.287Z,100063.91
2022-08-05T18:29:00.467Z,100072.09
2022-08-05T18:32:03.008Z,100084.06
2022-08-05T18:35:05.362Z,100091.19
2022-08-05T18:38:07.815Z,100085.56
2022-08-05T18:41:53.251Z,100078.56
2022-08-05T18:44:35.455Z,100083.28
2022-08-05T18:47:56.745Z,100089.84
2022-08-05T18:52:04.668Z,100087.31
2022-08-05T18:54:41.233Z,100098.56
2022-08-05T18:57:52.693Z,100097.53
2022-08-05T19:00:55.632Z,100106.25
2022-08-05T19:03:57.588Z,100108.78
2022-08-05T19:06:59.749Z,100097.47
2022-08-05T19:10:02.776Z,100106.25
2022-08-05T19:13:15.727Z,100100.47
2022-08-05T19:16:25.272Z,100100.81
2022-08-05T19:19:32.249Z,100098.66
2022-08-05T19:22:36.057Z,100102.69
2022-08-05T19:25:43.620Z,100096.38
2022-08-05T19:28:46.412Z,100100.25
2022-08-05T19:31:51.348Z,100104.19
2022-08-05T19:34:55.011Z,100101.09
2022-08-05T19:38:06.379Z,100110.47
2022-08-05T19:41:10.539Z,100102.22
2022-08-05T19:44:13.399Z,100109.19
2022-08-05T19:47:16.594Z,100107.91
2022-08-05T19:50:20.455Z,100102.81
2022-08-05T19:54:04.498Z,100106.19
2022-08-05T19:56:48.512Z,100096.22
2022-08-05T20:00:01.048Z,100103.81
2022-08-05T20:03:08.474Z,100100.81
2022-08-05T20:06:15.774Z,100110.47
2022-08-05T20:09:30.759Z,100111.37
2022-08-05T20:12:52.769Z,100111.75
2022-08-05T20:15:56.804Z,100111.78
2022-08-05T20:18:59.615Z,100117.16
2022-08-05T20:22:03.275Z,100106.75
2022-08-05T20:25:07.374Z,100107.81
2022-08-05T20:28:13.783Z,100111.84
2022-08-05T20:31:28.390Z,100103.50
2022-08-05T20:34:39.420Z,100108.22
2022-08-05T20:38:08.029Z,100108.59
2022-08-05T20:41:08.303Z,100102.53
2022-08-05T20:44:19.191Z,100103.09
2022-08-05T20:47:32.737Z,100097.72
2022-08-05T20:50:36.936Z,100100.72
2022-08-05T20:53:41.597Z,100106.97
2022-08-05T20:56:43.356Z,100107.41
2022-08-05T20:59:46.078Z,100115.09
2022-08-05T21:03:07.972Z,100105.81
2022-08-05T21:06:27.712Z,100106.78
2022-08-05T21:09:30.765Z,100117.56
2022-08-05T21:12:36.291Z,100121.87
2022-08-05T21:15:38.107Z,100116.84
2022-08-05T21:18:42.934Z,100115.06
2022-08-05T21:21:50.806Z,100116.00
2022-08-05T21:24:54.789Z,100127.69
2022-08-05T21:27:56.658Z,100128.41
2022-08-05T21:30:59.059Z,100126.00
2022-08-05T21:34:00.687Z,100124.31
2022-08-05T21:37:04.779Z,100121.50
2022-08-05T21:40:07.298Z,100124.72
2022-08-05T21:43:23.891Z,100130.41
2022-08-05T21:46:27.390Z,100128.25
2022-08-05T21:49:59.397Z,100140.03
2022-08-05T21:52:52.940Z,100136.25
2022-08-05T21:56:05.571Z,100130.62
2022-08-05T21:59:22.685Z,100137.59
2022-08-05T22:02:27.594Z,100130.56
2022-08-05T22:05:29.511Z,100135.34
2022-08-05T22:08:52.617Z,100145.31
2022-08-05T22:11:54.667Z,100151.31
2022-08-05T22:14:58.861Z,100138.72
2022-08-05T22:18:01.759Z,100141.47
2022-08-05T22:21:04.675Z,100145.25
2022-08-05T22:24:40.856Z,100151.50
2022-08-05T22:28:09.062Z,100143.59
2022-08-05T22:31:09.420Z,100144.28
2022-08-05T22:34:25.419Z,100131.44
2022-08-05T22:37:32.131Z,100132.44
2022-08-05T22:40:55.010Z,100132.13
2022-08-05T22:43:59.594Z,100121.50
2022-08-05T22:47:01.350Z,100119.25
2022-08-05T22:50:23.295Z,100131.13
2022-08-05T22:53:35.940Z,100132.41
2022-08-05T22:56:40.104Z,100130.75
2022-08-05T22:59:51.942Z,100130.00
2022-08-05T23:02:56.254Z,100128.69
2022-08-05T23:05:59.908Z,100131.63
2022-08-05T23:09:27.980Z,100129.91
2022-08-05T23:12:25.416Z,100125.88
2022-08-05T23:15:35.156Z,100133.72
2022-08-05T23:18:38.561Z,100122.41
2022-08-05T23:21:43.100Z,100122.16
2022-08-05T23:24:51.373Z,100126.78
2022-08-05T23:28:00.231Z,100123.16
2022-08-05T23:31:17.159Z,100128.22
2022-08-05T23:34:24.365Z,100127.94
2022-08-05T23:37:26.703Z,100123.38
2022-08-05T23:40:36.114Z,100119.88
2022-08-05T23:44:05.430Z,100123.50
2022-08-05T23:47:15.025Z,100122.47
2022-08-05T23:50:20.291Z,100124.16
2022-08-05T23:53:23.021Z,100125.28
2022-08-05T23:56:27.523Z,100120.09
